Terminal Aerodrome Forecast
Issued by NWS

Home | Current Version | Previous Version | Text Only | Print | Product List | Glossary On
Versions: 1 2 3 4 5 6 7 8 9 10 11 12 13
000
FTUS43 KEAX 030520
TAFMKC
TAF
KMKC 030520Z 0306/0406 18008KT P6SM FEW150
     FM031700 19012G20KT P6SM SCT100
     FM040000 18007KT P6SM FEW100=

USA.gov is the U.S. government's official web portal to all federal, state and local government web resources and services.